Time;durP1;ratioP1;P1;durP2;ratioP2;P2;SDS_P1;SDS_P2;PMS_P1;PMS_P2;Temp;Humidity;BMP_temperature;BMP_pressure;BME280_temperature;BME280_humidity;BME280_pressure;Samples;Min_cycle;Max_cycle;Signal;HPM_P1;HPM_P2
2020/12/30 00:00:09;;;;;;;;;;;;;;;27.90;27.79;100653.94;5117531;28;1949;-35
2020/12/30 00:02:34;;;;;;;;;;;;;;;27.91;27.91;100659.16;5117849;28;767;-44
2020/12/30 00:05:00;;;;;;;;;;;;;;;27.43;28.45;100664.97;5117079;27;996;-39
2020/12/30 00:07:25;;;;;;;;;;;;;;;27.75;28.37;100662.94;5117262;28;840;-43
2020/12/30 00:09:51;;;;;;;;;;;;;;;27.83;27.84;100656.56;5126205;27;1134;-43
2020/12/30 00:12:19;;;;;;;;;;;;;;;27.82;28.09;100661.16;5137483;27;862;-35
2020/12/30 00:14:44;;;;;;;;;;;;;;;26.98;29.37;100654.97;5138339;27;794;-35
2020/12/30 00:17:09;;;;;;;;;;;;;;;27.40;28.74;100652.69;5138166;27;731;-45
2020/12/30 00:19:35;;;;;;;;;;;;;;;27.73;28.16;100657.72;5137396;27;1220;-35
2020/12/30 00:22:00;;;;;;;;;;;;;;;27.70;28.09;100650.00;5119695;27;1976;-44
2020/12/30 00:24:25;;;;;;;;;;;;;;;27.69;28.18;100666.41;5117488;28;747;-41
2020/12/30 00:26:51;;;;;;;;;;;;;;;28.06;27.88;100669.94;5116947;28;759;-37
2020/12/30 00:29:16;;;;;;;;;;;;;;;27.89;27.67;100663.09;5117350;28;901;-42
2020/12/30 00:31:41;;;;;;;;;;;;;;;27.75;27.96;100674.59;5117325;28;763;-37
2020/12/30 00:34:06;;;;;;;;;;;;;;;27.60;28.29;100671.03;5116925;28;889;-36
2020/12/30 00:36:36;;;;;;;;;;;;;;;27.19;29.15;100673.22;5130946;27;997;-38
2020/12/30 00:39:01;;;;;;;;;;;;;;;27.82;27.91;100671.13;5138043;27;810;-37
2020/12/30 00:41:26;;;;;;;;;;;;;;;27.74;28.05;100667.50;5137589;27;1901;-37
2020/12/30 00:43:52;;;;;;;;;;;;;;;27.32;28.87;100663.59;5137770;27;810;-37
2020/12/30 00:46:17;;;;;;;;;;;;;;;28.22;27.29;100673.44;5137863;27;858;-36
2020/12/30 00:48:43;;;;;;;;;;;;;;;28.05;27.46;100673.69;5137359;27;751;-36
2020/12/30 00:51:11;;;;;;;;;;;;;;;27.86;28.01;100667.84;5126430;27;956;-43
2020/12/30 00:53:37;;;;;;;;;;;;;;;27.36;28.55;100679.25;5119874;27;838;-35
2020/12/30 00:56:02;;;;;;;;;;;;;;;27.14;29.23;100672.91;5121044;27;811;-42
2020/12/30 00:58:27;;;;;;;;;;;;;;;27.77;27.94;100670.84;5119689;28;1437;-42
2020/12/30 01:00:52;;;;;;;;;;;;;;;27.71;27.90;100672.47;5121220;28;1910;-36
2020/12/30 01:03:18;;;;;;;;;;;;;;;27.80;28.04;100678.56;5120947;27;747;-42
2020/12/30 01:05:43;;;;;;;;;;;;;;;27.92;27.78;100676.22;5127320;27;957;-36
2020/12/30 01:08:08;;;;;;;;;;;;;;;28.03;27.51;100681.13;5141572;27;738;-43
2020/12/30 01:10:34;;;;;;;;;;;;;;;27.80;27.83;100673.16;5141360;27;1118;-35
2020/12/30 01:12:59;;;;;;;;;;;;;;;27.81;27.94;100677.56;5141385;27;849;-44
2020/12/30 01:15:24;;;;;;;;;;;;;;;27.08;29.27;100674.47;5141479;27;746;-36
2020/12/30 01:17:49;;;;;;;;;;;;;;;27.73;28.12;100673.94;5141323;27;813;-44
2020/12/30 01:20:15;;;;;;;;;;;;;;;27.83;28.01;100679.03;5137363;27;1914;-36
2020/12/30 01:22:40;;;;;;;;;;;;;;;27.82;27.82;100669.28;5120324;28;816;-35
2020/12/30 01:25:05;;;;;;;;;;;;;;;27.46;28.81;100664.63;5120821;28;810;-43
2020/12/30 01:27:30;;;;;;;;;;;;;;;27.85;27.84;100671.59;5120495;28;744;-43
2020/12/30 01:29:56;;;;;;;;;;;;;;;27.78;28.08;100665.25;5120487;28;782;-36
2020/12/30 01:32:21;;;;;;;;;;;;;;;27.73;28.47;100675.78;5120664;28;751;-38
2020/12/30 01:34:46;;;;;;;;;;;;;;;27.21;29.00;100670.31;5120265;28;854;-39
2020/12/30 01:37:11;;;;;;;;;;;;;;;27.90;27.84;100675.56;5120088;27;942;-35
2020/12/30 01:39:37;;;;;;;;;;;;;;;27.93;27.67;100669.78;5120531;28;850;-34
2020/12/30 01:42:02;;;;;;;;;;;;;;;27.83;27.72;100672.78;5120149;28;1906;-35
2020/12/30 01:44:27;;;;;;;;;;;;;;;27.90;28.01;100672.88;5120515;28;810;-43
2020/12/30 01:46:53;;;;;;;;;;;;;;;28.15;27.49;100675.22;5120377;28;811;-35
2020/12/30 01:49:20;;;;;;;;;;;;;;;28.03;27.63;100675.72;5118467;28;842;-43
2020/12/30 01:51:45;;;;;;;;;;;;;;;27.82;28.13;100673.81;5119639;27;941;-43
2020/12/30 01:54:10;;;;;;;;;;;;;;;27.09;29.09;100680.72;5119069;28;751;-37
2020/12/30 01:56:36;;;;;;;;;;;;;;;27.47;28.69;100679.81;5119932;28;747;-36
2020/12/30 01:59:04;;;;;;;;;;;;;;;27.89;27.94;100682.88;5120172;28;763;-39
2020/12/30 02:01:29;;;;;;;;;;;;;;;27.81;27.92;100672.16;5119944;28;1902;-43
2020/12/30 02:03:57;;;;;;;;;;;;;;;28.16;27.56;100675.03;5119222;28;823;-35
2020/12/30 02:06:23;;;;;;;;;;;;;;;28.20;27.09;100670.06;5131233;27;957;-36
2020/12/30 02:08:48;;;;;;;;;;;;;;;27.90;27.87;100670.16;5140510;27;774;-43
2020/12/30 02:11:14;;;;;;;;;;;;;;;27.66;28.16;100674.84;5139060;27;1245;-35
2020/12/30 02:13:39;;;;;;;;;;;;;;;27.34;29.00;100675.06;5140463;27;830;-43
2020/12/30 02:16:04;;;;;;;;;;;;;;;27.71;28.20;100677.88;5140112;27;850;-35
2020/12/30 02:18:29;;;;;;;;;;;;;;;27.90;27.85;100668.31;5139748;27;1038;-41
2020/12/30 02:20:55;;;;;;;;;;;;;;;27.78;28.04;100659.03;5130595;27;1909;-35
2020/12/30 02:23:20;;;;;;;;;;;;;;;27.98;27.62;100668.19;5119692;28;870;-35
2020/12/30 02:25:45;;;;;;;;;;;;;;;27.91;28.01;100659.16;5119221;28;811;-39
2020/12/30 02:28:11;;;;;;;;;;;;;;;27.85;27.93;100659.94;5119427;28;815;-37
2020/12/30 02:30:36;;;;;;;;;;;;;;;27.66;28.19;100654.06;5119582;28;771;-35
2020/12/30 02:33:01;;;;;;;;;;;;;;;27.07;29.31;100659.31;5118948;28;830;-37
2020/12/30 02:35:26;;;;;;;;;;;;;;;27.86;28.07;100659.72;5119147;27;1008;-44
2020/12/30 02:37:52;;;;;;;;;;;;;;;27.84;28.16;100663.66;5119222;28;870;-34
2020/12/30 02:40:17;;;;;;;;;;;;;;;27.93;28.04;100659.81;5118923;28;1897;-35
2020/12/30 02:42:43;;;;;;;;;;;;;;;27.92;28.12;100660.00;5117678;28;777;-34
2020/12/30 02:45:08;;;;;;;;;;;;;;;27.87;27.85;100658.72;5119179;28;807;-37
2020/12/30 02:47:33;;;;;;;;;;;;;;;27.51;28.44;100651.38;5118595;28;787;-34
2020/12/30 02:49:59;;;;;;;;;;;;;;;27.17;28.86;100640.16;5118758;27;1004;-38
2020/12/30 02:52:25;;;;;;;;;;;;;;;26.98;29.60;100638.78;5119013;28;736;-43
2020/12/30 02:54:50;;;;;;;;;;;;;;;27.68;28.29;100640.34;5118321;28;551;-44
2020/12/30 02:57:15;;;;;;;;;;;;;;;27.71;28.34;100648.94;5118857;28;767;-43
2020/12/30 02:59:40;;;;;;;;;;;;;;;27.83;27.87;100641.19;5118711;28;835;-44
2020/12/30 03:02:06;;;;;;;;;;;;;;;28.01;27.75;100658.84;5118270;28;2007;-43
2020/12/30 03:04:31;;;;;;;;;;;;;;;27.99;27.57;100637.41;5118820;28;851;-35
2020/12/30 03:06:56;;;;;;;;;;;;;;;27.82;27.93;100641.38;5118336;27;953;-39
2020/12/30 03:09:21;;;;;;;;;;;;;;;27.74;28.46;100642.34;5123075;27;1067;-42
2020/12/30 03:11:47;;;;;;;;;;;;;;;27.26;29.28;100635.47;5139908;27;758;-45
2020/12/30 03:14:13;;;;;;;;;;;;;;;27.78;28.18;100634.72;5139179;27;848;-34
2020/12/30 03:16:38;;;;;;;;;;;;;;;27.84;28.15;100631.22;5138956;27;802;-43
2020/12/30 03:19:03;;;;;;;;;;;;;;;28.04;27.74;100634.16;5138848;27;1189;-36
2020/12/30 03:21:28;;;;;;;;;;;;;;;28.15;27.60;100632.78;5124944;27;1909;-41
2020/12/30 03:23:54;;;;;;;;;;;;;;;27.94;27.94;100630.91;5118678;28;750;-35
2020/12/30 03:26:19;;;;;;;;;;;;;;;27.79;28.05;100637.22;5118170;28;927;-43
2020/12/30 03:28:45;;;;;;;;;;;;;;;27.34;29.24;100634.56;5118223;28;825;-38
2020/12/30 03:31:10;;;;;;;;;;;;;;;27.41;29.12;100631.94;5118249;28;755;-43
2020/12/30 03:33:35;;;;;;;;;;;;;;;27.85;28.19;100633.75;5118073;28;830;-42
2020/12/30 03:36:00;;;;;;;;;;;;;;;27.81;28.28;100637.84;5117875;27;1008;-43
2020/12/30 03:38:26;;;;;;;;;;;;;;;27.66;28.73;100634.31;5118326;28;815;-36
2020/12/30 03:40:51;;;;;;;;;;;;;;;27.98;27.87;100630.34;5117821;28;1905;-40
2020/12/30 03:43:17;;;;;;;;;;;;;;;27.89;28.08;100628.78;5117559;28;874;-35
2020/12/30 03:45:42;;;;;;;;;;;;;;;27.80;28.44;100638.03;5118104;28;770;-35
2020/12/30 03:48:08;;;;;;;;;;;;;;;27.17;29.69;100628.50;5117625;27;850;-43
2020/12/30 03:50:33;;;;;;;;;;;;;;;27.59;28.93;100636.94;5117497;27;953;-42
2020/12/30 03:52:58;;;;;;;;;;;;;;;27.81;28.23;100637.84;5118333;28;854;-36
2020/12/30 03:55:23;;;;;;;;;;;;;;;27.97;27.89;100644.91;5117563;28;759;-40
2020/12/30 03:57:49;;;;;;;;;;;;;;;28.23;27.96;100634.53;5117295;28;842;-44
2020/12/30 04:00:14;;;;;;;;;;;;;;;28.17;27.82;100641.56;5117784;28;1968;-37
2020/12/30 04:02:39;;;;;;;;;;;;;;;27.97;27.97;100625.13;5117438;28;799;-43
2020/12/30 04:05:05;;;;;;;;;;;;;;;27.72;28.82;100629.03;5117122;27;953;-36
2020/12/30 04:07:30;;;;;;;;;;;;;;;27.31;29.37;100621.44;5117610;28;821;-43
2020/12/30 04:09:55;;;;;;;;;;;;;;;27.91;27.96;100621.31;5126753;27;1181;-36
2020/12/30 04:12:20;;;;;;;;;;;;;;;27.77;28.12;100627.59;5138266;27;874;-44
2020/12/30 04:14:46;;;;;;;;;;;;;;;27.41;29.04;100623.84;5131940;27;862;-41
2020/12/30 04:17:11;;;;;;;;;;;;;;;27.72;28.59;100625.47;5116756;28;849;-44
2020/12/30 04:19:36;;;;;;;;;;;;;;;27.72;28.36;100614.66;5117126;28;1218;-35
2020/12/30 04:22:02;;;;;;;;;;;;;;;27.66;28.77;100616.22;5117199;27;1985;-36
2020/12/30 04:24:27;;;;;;;;;;;;;;;27.60;28.93;100606.19;5117184;28;791;-35
2020/12/30 04:26:53;;;;;;;;;;;;;;;27.59;28.92;100612.63;5116831;28;763;-35
2020/12/30 04:29:18;;;;;;;;;;;;;;;27.39;29.17;100607.81;5117191;28;862;-49
2020/12/30 04:31:43;;;;;;;;;;;;;;;27.26;29.25;100609.31;5117041;28;759;-44
2020/12/30 04:34:08;;;;;;;;;;;;;;;27.21;29.63;100610.91;5117407;28;870;-39
2020/12/30 04:36:34;;;;;;;;;;;;;;;26.51;30.72;100625.38;5116832;27;946;-39
2020/12/30 04:38:59;;;;;;;;;;;;;;;25.55;30.43;100622.78;5116853;28;779;-40
2020/12/30 04:41:27;;;;;;;;;;;;;;;24.59;32.22;100612.72;5117056;28;1901;-40
2020/12/30 04:43:53;;;;;;;;;;;;;;;24.36;32.66;100621.47;5117018;28;767;-39
2020/12/30 04:46:18;;;;;;;;;;;;;;;24.03;33.30;100621.41;5116823;28;807;-37
2020/12/30 04:48:43;;;;;;;;;;;;;;;23.90;33.59;100624.56;5115750;28;747;-37
2020/12/30 04:51:11;;;;;;;;;;;;;;;23.87;33.49;100619.53;5116584;27;914;-38
2020/12/30 04:53:37;;;;;;;;;;;;;;;23.97;33.29;100626.41;5115331;28;1292;-41
2020/12/30 04:56:02;;;;;;;;;;;;;;;23.78;33.49;100634.78;5117171;28;708;-39
2020/12/30 04:58:28;;;;;;;;;;;;;;;23.60;33.82;100635.72;5116901;28;790;-41
2020/12/30 05:00:53;;;;;;;;;;;;;;;23.85;33.81;100630.44;5116686;28;1903;-37
2020/12/30 05:03:20;;;;;;;;;;;;;;;24.20;33.40;100627.69;5117002;28;816;-41
2020/12/30 05:05:45;;;;;;;;;;;;;;;25.19;31.14;100621.38;5122918;27;1144;-42
2020/12/30 05:08:11;;;;;;;;;;;;;;;25.60;30.43;100626.78;5137274;27;806;-43
2020/12/30 05:10:46;;;;;;;;;;;;;;;26.07;29.70;100632.28;5137165;27;1205;-44
2020/12/30 05:13:11;;;;;;;;;;;;;;;25.66;29.90;100631.50;5137561;27;785;-37
2020/12/30 05:15:36;;;;;;;;;;;;;;;26.15;29.00;100630.38;5137427;27;774;-38
2020/12/30 05:18:05;;;;;;;;;;;;;;;26.29;29.02;100619.84;5137287;27;842;-38
2020/12/30 05:20:35;;;;;;;;;;;;;;;24.99;30.63;100614.72;5131202;27;1909;-35
2020/12/30 05:23:09;;;;;;;;;;;;;;;24.30;32.00;100622.13;5116432;28;791;-45
2020/12/30 05:25:41;;;;;;;;;;;;;;;23.35;33.46;100625.69;5116797;28;786;-44
2020/12/30 05:28:13;;;;;;;;;;;;;;;23.79;33.17;100620.34;5116735;28;810;-44
2020/12/30 05:30:39;;;;;;;;;;;;;;;23.56;33.04;100616.41;5116445;28;759;-43
2020/12/30 05:33:04;;;;;;;;;;;;;;;23.39;33.46;100609.28;5116220;28;814;-36
2020/12/30 05:35:30;;;;;;;;;;;;;;;23.44;33.49;100615.84;5116928;27;997;-44
2020/12/30 05:37:55;;;;;;;;;;;;;;;21.36;37.24;100603.31;5116450;28;870;-41
2020/12/30 05:40:21;;;;;;;;;;;;;;;23.05;35.10;100610.94;5118573;28;1972;-43
2020/12/30 05:42:46;;;;;;;;;;;;;;;24.38;32.25;100613.22;5120472;28;898;-36
2020/12/30 05:45:18;;;;;;;;;;;;;;;24.58;31.67;100602.97;5119760;28;794;-39
2020/12/30 05:47:43;;;;;;;;;;;;;;;24.71;31.46;100605.13;5119982;28;810;-34
2020/12/30 05:50:12;;;;;;;;;;;;;;;24.72;31.25;100606.84;5119878;27;949;-38
2020/12/30 05:52:37;;;;;;;;;;;;;;;24.76;31.31;100599.25;5120092;27;1058;-37
2020/12/30 05:55:03;;;;;;;;;;;;;;;24.81;31.29;100602.28;5120199;28;759;-36
2020/12/30 05:57:35;;;;;;;;;;;;;;;24.69;31.32;100601.81;5118840;28;1563;-38
2020/12/30 06:00:10;;;;;;;;;;;;;;;24.86;31.44;100607.16;5132876;27;1901;-37
2020/12/30 06:02:38;;;;;;;;;;;;;;;25.25;30.93;100594.78;5140183;27;834;-38
2020/12/30 06:05:13;;;;;;;;;;;;;;;25.82;30.03;100605.47;5138147;27;850;-39
2020/12/30 06:07:38;;;;;;;;;;;;;;;25.92;29.77;100609.63;5119380;28;798;-38
2020/12/30 06:10:04;;;;;;;;;;;;;;;25.68;30.15;100603.38;5130010;27;1126;-39
2020/12/30 06:12:29;;;;;;;;;;;;;;;27.49;27.77;100616.44;5140089;27;782;-36
2020/12/30 06:14:55;;;;;;;;;;;;;;;27.21;28.34;100616.31;5139372;27;763;-39
2020/12/30 06:17:24;;;;;;;;;;;;;;;27.54;28.11;100613.19;5139847;27;791;-38
2020/12/30 06:19:50;;;;;;;;;;;;;;;27.69;27.86;100615.06;5139153;27;1155;-38
2020/12/30 06:22:15;;;;;;;;;;;;;;;27.27;28.56;100618.25;5137593;27;1970;-39
2020/12/30 06:24:40;;;;;;;;;;;;;;;27.62;28.06;100625.75;5139195;27;763;-39
2020/12/30 06:27:05;;;;;;;;;;;;;;;27.66;28.25;100620.81;5138276;27;826;-38
2020/12/30 06:29:31;;;;;;;;;;;;;;;27.60;28.37;100627.78;5138750;27;848;-39
2020/12/30 06:31:56;;;;;;;;;;;;;;;27.50;28.32;100628.09;5139949;27;877;-36
2020/12/30 06:34:21;;;;;;;;;;;;;;;27.33;28.89;100620.19;5140027;27;821;-36
2020/12/30 06:36:46;;;;;;;;;;;;;;;27.33;28.77;100631.00;5122855;27;949;-39
2020/12/30 06:39:19;;;;;;;;;;;;;;;26.57;30.55;100621.97;5119257;28;878;-38
2020/12/30 06:41:57;;;;;;;;;;;;;;;26.76;30.34;100636.81;5118995;28;1963;-36
2020/12/30 06:44:34;;;;;;;;;;;;;;;27.72;28.83;100629.03;5119210;28;748;-36
2020/12/30 06:47:00;;;;;;;;;;;;;;;27.77;28.57;100635.72;5119188;27;810;-37
2020/12/30 06:49:25;;;;;;;;;;;;;;;27.63;29.31;100662.53;5118947;28;747;-34
2020/12/30 06:51:50;;;;;;;;;;;;;;;28.33;28.34;100647.75;5118245;27;993;-42
2020/12/30 06:54:15;;;;;;;;;;;;;;;28.32;28.30;100649.59;5117756;28;782;-40
2020/12/30 06:56:42;;;;;;;;;;;;;;;28.16;28.53;100649.88;5118669;28;510;-36
2020/12/30 06:59:16;;;;;;;;;;;;;;;27.75;29.13;100644.84;5118623;28;758;-36
2020/12/30 07:01:54;;;;;;;;;;;;;;;28.03;28.68;100634.34;5118865;28;1906;-37
2020/12/30 07:04:19;;;;;;;;;;;;;;;27.91;28.95;100639.41;5118893;28;806;-38
2020/12/30 07:06:44;;;;;;;;;;;;;;;27.07;30.51;100645.81;5117868;27;957;-36
2020/12/30 07:09:11;;;;;;;;;;;;;;;27.99;29.09;100647.41;5121269;27;1059;-36
2020/12/30 07:11:40;;;;;;;;;;;;;;;28.14;29.00;100643.81;5137918;27;1320;-36
2020/12/30 07:14:06;;;;;;;;;;;;;;;27.75;29.00;100636.75;5138930;27;754;-35
2020/12/30 07:16:35;;;;;;;;;;;;;;;27.23;30.32;100638.53;5138817;27;771;-34
2020/12/30 07:19:00;;;;;;;;;;;;;;;28.11;28.99;100645.84;5139032;27;1081;-34
2020/12/30 07:21:25;;;;;;;;;;;;;;;28.17;28.49;100644.25;5137972;27;1909;-34
2020/12/30 07:23:51;;;;;;;;;;;;;;;27.89;28.92;100641.47;5138904;27;734;-41
2020/12/30 07:26:20;;;;;;;;;;;;;;;27.24;30.71;100643.75;5137735;27;1334;-35
2020/12/30 07:28:45;;;;;;;;;;;;;;;27.90;29.54;100649.38;5138630;27;770;-34
2020/12/30 07:31:12;;;;;;;;;;;;;;;28.29;29.01;100647.28;5138757;27;747;-36
2020/12/30 07:33:37;;;;;;;;;;;;;;;28.28;28.77;100644.78;5138430;27;854;-36
2020/12/30 07:36:03;;;;;;;;;;;;;;;27.54;30.48;100645.63;5128065;27;953;-36
2020/12/30 07:38:28;;;;;;;;;;;;;;;28.34;29.05;100647.56;5117823;28;826;-35
2020/12/30 07:41:14;;;;;;;;;;;;;;;28.35;28.73;100648.41;5116567;28;1897;-35
2020/12/30 07:43:46;;;;;;;;;;;;;;;28.28;28.92;100642.91;5117047;28;1438;-39
2020/12/30 07:46:17;;;;;;;;;;;;;;;27.45;30.81;100644.88;5117770;28;881;-35
2020/12/30 07:48:43;;;;;;;;;;;;;;;28.30;29.39;100648.09;5117582;28;826;-35
2020/12/30 07:51:08;;;;;;;;;;;;;;;28.49;29.05;100649.38;5117037;27;977;-35
2020/12/30 07:53:34;;;;;;;;;;;;;;;28.41;28.85;100652.22;5117698;28;751;-35
2020/12/30 07:55:59;;;;;;;;;;;;;;;27.59;29.11;100636.94;5131661;27;870;-41
2020/12/30 07:58:24;;;;;;;;;;;;;;;27.84;28.14;100639.34;5137099;27;865;-34
2020/12/30 08:00:50;;;;;;;;;;;;;;;27.68;28.70;100633.13;5138426;27;1901;-34
2020/12/30 08:03:15;;;;;;;;;;;;;;;27.31;29.60;100641.16;5136353;27;759;-37
2020/12/30 08:05:44;;;;;;;;;;;;;;;27.15;29.54;100642.19;5135777;27;1012;-36
2020/12/30 08:08:09;;;;;;;;;;;;;;;27.61;28.85;100635.72;5136409;27;1122;-35
2020/12/30 08:10:34;;;;;;;;;;;;;;;27.58;28.86;100638.78;5136802;27;1186;-38
2020/12/30 08:13:09;;;;;;;;;;;;;;;27.49;29.12;100626.44;5137592;27;838;-42
2020/12/30 08:15:34;;;;;;;;;;;;;;;27.52;29.16;100642.25;5138658;27;822;-43
2020/12/30 08:18:00;;;;;;;;;;;;;;;27.66;28.72;100637.84;5137915;27;806;-43
2020/12/30 08:20:25;;;;;;;;;;;;;;;27.91;28.32;100639.41;5131596;27;1906;-48
2020/12/30 08:22:57;;;;;;;;;;;;;;;27.75;28.88;100631.34;5129371;27;1097;-42
2020/12/30 08:25:22;;;;;;;;;;;;;;;28.35;27.76;100630.31;5137666;27;862;-36
2020/12/30 08:27:47;;;;;;;;;;;;;;;28.22;28.17;100644.53;5137336;27;802;-38
2020/12/30 08:30:13;;;;;;;;;;;;;;;28.20;28.34;100645.72;5136732;27;783;-38
2020/12/30 08:32:46;;;;;;;;;;;;;;;28.34;28.25;100635.91;5142733;27;1227;-38
2020/12/30 08:35:16;;;;;;;;;;;;;;;28.13;28.39;100634.84;5115964;27;942;-38
2020/12/30 08:37:42;;;;;;;;;;;;;;;28.20;28.21;100640.31;5117111;28;782;-38
2020/12/30 08:40:07;;;;;;;;;;;;;;;28.15;28.36;100640.06;5117114;28;1914;-35
2020/12/30 08:42:38;;;;;;;;;;;;;;;27.92;29.27;100628.41;5116599;28;758;-37
2020/12/30 08:45:04;;;;;;;;;;;;;;;28.63;28.14;100617.81;5116902;28;1040;-35
2020/12/30 08:47:34;;;;;;;;;;;;;;;28.75;27.54;100615.41;5115509;28;815;-37
2020/12/30 08:49:59;;;;;;;;;;;;;;;28.58;28.16;100617.56;5116310;27;953;-37
2020/12/30 08:52:24;;;;;;;;;;;;;;;28.54;27.98;100611.75;5117023;28;783;-39
2020/12/30 08:55:00;;;;;;;;;;;;;;;27.75;29.36;100615.13;5116990;28;767;-37
2020/12/30 08:57:25;;;;;;;;;;;;;;;28.28;28.78;100604.22;5116636;28;727;-37
2020/12/30 08:59:50;;;;;;;;;;;;;;;28.82;27.57;100613.59;5117080;28;811;-38
2020/12/30 09:02:15;;;;;;;;;;;;;;;28.72;27.75;100605.00;5116845;28;1975;-39
2020/12/30 09:04:53;;;;;;;;;;;;;;;28.88;27.37;100597.59;5116588;28;775;-37
2020/12/30 09:07:25;;;;;;;;;;;;;;;29.10;27.59;100595.66;5116749;27;890;-39
2020/12/30 09:09:59;;;;;;;;;;;;;;;29.29;27.36;100601.38;5125091;28;1146;-38
2020/12/30 09:12:24;;;;;;;;;;;;;;;29.31;27.34;100589.28;5137181;27;787;-38
2020/12/30 09:14:49;;;;;;;;;;;;;;;29.36;27.18;100577.88;5140311;27;909;-39
2020/12/30 09:17:15;;;;;;;;;;;;;;;29.57;27.18;100584.19;5141757;27;700;-38
2020/12/30 09:19:40;;;;;;;;;;;;;;;28.47;27.10;100595.44;5140624;27;1077;-39
2020/12/30 09:22:06;;;;;;;;;;;;;;;27.21;28.82;100576.63;5122264;27;1917;-40
2020/12/30 09:24:50;;;;;;;;;;;;;;;26.93;29.44;100585.34;5120479;28;767;-41
2020/12/30 09:27:24;;;;;;;;;;;;;;;27.17;28.41;100583.44;5120297;28;747;-40
2020/12/30 09:30:08;;;;;;;;;;;;;;;27.19;29.06;100588.66;5120569;28;814;-41
2020/12/30 09:32:33;;;;;;;;;;;;;;;26.50;29.77;100596.75;5120401;28;788;-43
2020/12/30 09:34:59;;;;;;;;;;;;;;;27.20;28.66;100582.22;5119918;27;953;-42
2020/12/30 09:37:25;;;;;;;;;;;;;;;27.10;28.78;100577.94;5120243;28;768;-42
2020/12/30 09:40:01;;;;;;;;;;;;;;;26.74;28.59;100560.59;5120132;28;947;-43
2020/12/30 09:42:26;;;;;;;;;;;;;;;26.91;28.98;100576.59;5120082;28;870;-43
2020/12/30 09:44:51;;;;;;;;;;;;;;;26.93;28.66;100563.75;5120255;28;755;-42
2020/12/30 09:47:16;;;;;;;;;;;;;;;26.94;28.66;100568.16;5120409;28;807;-42
2020/12/30 09:49:42;;;;;;;;;;;;;;;26.96;28.90;100562.56;5119957;28;787;-42
2020/12/30 09:52:07;;;;;;;;;;;;;;;26.88;28.68;100553.53;5119929;27;965;-42
2020/12/30 09:54:32;;;;;;;;;;;;;;;26.77;29.05;100552.16;5120411;28;736;-43
2020/12/30 09:56:57;;;;;;;;;;;;;;;25.92;30.68;100555.72;5119782;28;811;-42
2020/12/30 09:59:23;;;;;;;;;;;;;;;26.99;28.98;100546.00;5119783;28;853;-42
2020/12/30 10:01:48;;;;;;;;;;;;;;;26.00;30.43;100557.53;5120096;28;1968;-42
2020/12/30 10:04:14;;;;;;;;;;;;;;;26.04;30.37;100544.53;5119734;28;790;-42
2020/12/30 10:06:39;;;;;;;;;;;;;;;26.37;30.14;100530.81;5119334;27;996;-42
2020/12/30 10:09:04;;;;;;;;;;;;;;;26.63;29.52;100534.06;5122041;27;1130;-42
2020/12/30 10:11:29;;;;;;;;;;;;;;;26.76;29.32;100528.03;5140142;27;947;-42
2020/12/30 10:13:55;;;;;;;;;;;;;;;27.08;28.83;100535.94;5140108;27;763;-39
2020/12/30 10:16:20;;;;;;;;;;;;;;;26.89;29.01;100524.69;5140254;27;815;-43
2020/12/30 10:18:45;;;;;;;;;;;;;;;25.40;31.52;100509.56;5139804;27;1201;-41
2020/12/30 10:21:11;;;;;;;;;;;;;;;24.55;33.34;100528.03;5128762;27;1968;-41
2020/12/30 10:23:36;;;;;;;;;;;;;;;25.87;30.55;100511.47;5119595;28;776;-43
2020/12/30 10:26:01;;;;;;;;;;;;;;;26.49;29.47;100508.78;5118562;28;858;-41
2020/12/30 10:28:26;;;;;;;;;;;;;;;26.30;29.14;100505.53;5119092;28;771;-41
2020/12/30 10:30:52;;;;;;;;;;;;;;;26.41;29.16;100497.03;5119423;28;787;-42
2020/12/30 10:33:17;;;;;;;;;;;;;;;26.20;29.66;100507.66;5119156;27;1568;-40
2020/12/30 10:35:42;;;;;;;;;;;;;;;26.06;30.12;100507.44;5118587;27;1016;-41
2020/12/30 10:38:08;;;;;;;;;;;;;;;26.07;30.35;100495.66;5119264;28;886;-40
2020/12/30 10:40:33;;;;;;;;;;;;;;;26.25;29.45;100495.31;5119182;28;1967;-41
2020/12/30 10:42:58;;;;;;;;;;;;;;;25.57;30.02;100496.00;5118736;28;766;-40
2020/12/30 10:45:23;;;;;;;;;;;;;;;25.70;30.36;100494.59;5119259;28;778;-40
2020/12/30 10:47:49;;;;;;;;;;;;;;;26.05;29.78;100495.00;5118811;28;549;-41
2020/12/30 10:50:14;;;;;;;;;;;;;;;26.59;29.34;100501.22;5118160;27;1004;-42
2020/12/30 10:52:39;;;;;;;;;;;;;;;26.43;29.00;100504.09;5119271;28;807;-43
2020/12/30 10:55:05;;;;;;;;;;;;;;;25.98;29.07;100502.13;5119025;27;823;-41
2020/12/30 10:57:30;;;;;;;;;;;;;;;25.83;29.39;100500.22;5123553;27;823;-42
2020/12/30 10:59:55;;;;;;;;;;;;;;;26.22;29.36;100495.69;5139434;27;823;-41
2020/12/30 11:02:20;;;;;;;;;;;;;;;26.37;29.03;100492.19;5140053;27;1960;-42
2020/12/30 11:04:46;;;;;;;;;;;;;;;26.29;28.67;100495.78;5140702;27;821;-43
2020/12/30 11:07:11;;;;;;;;;;;;;;;26.16;29.09;100505.34;5122372;27;1003;-42
2020/12/30 11:09:36;;;;;;;;;;;;;;;26.14;29.02;100507.38;5139136;27;1169;-42
2020/12/30 11:12:02;;;;;;;;;;;;;;;26.13;28.60;100491.38;5138725;27;826;-41
2020/12/30 11:14:28;;;;;;;;;;;;;;;26.17;28.48;100488.13;5139207;27;870;-42
2020/12/30 11:16:54;;;;;;;;;;;;;;;25.93;28.67;100489.19;5138894;27;766;-43
2020/12/30 11:19:19;;;;;;;;;;;;;;;26.05;28.42;100492.28;5138652;27;1093;-42
2020/12/30 11:21:51;;;;;;;;;;;;;;;26.24;28.47;100490.09;5122867;27;1996;-42
2020/12/30 11:24:16;;;;;;;;;;;;;;;26.54;27.73;100487.47;5118235;28;807;-41
2020/12/30 11:26:46;;;;;;;;;;;;;;;26.39;27.92;100479.38;5133443;27;863;-42
2020/12/30 11:29:11;;;;;;;;;;;;;;;26.17;28.38;100477.34;5138823;27;759;-42
2020/12/30 11:31:37;;;;;;;;;;;;;;;26.44;28.11;100481.50;5138764;27;766;-43
2020/12/30 11:34:02;;;;;;;;;;;;;;;26.38;27.98;100483.91;5138746;27;790;-42
2020/12/30 11:36:28;;;;;;;;;;;;;;;26.65;27.69;100473.53;5124631;27;949;-40
2020/12/30 11:38:53;;;;;;;;;;;;;;;26.36;28.05;100482.44;5116953;28;797;-41
2020/12/30 11:41:18;;;;;;;;;;;;;;;26.53;27.84;100470.44;5121965;27;1897;-42
2020/12/30 11:43:43;;;;;;;;;;;;;;;26.67;27.46;100489.53;5138550;27;893;-41
2020/12/30 11:46:09;;;;;;;;;;;;;;;26.28;27.81;100470.69;5138341;27;771;-40
2020/12/30 11:48:34;;;;;;;;;;;;;;;26.38;28.01;100462.34;5138561;27;823;-40
2020/12/30 11:50:59;;;;;;;;;;;;;;;27.94;25.94;100460.59;5128739;27;1016;-36
2020/12/30 11:53:24;;;;;;;;;;;;;;;28.48;25.40;100463.69;5117722;28;874;-34
2020/12/30 11:55:50;;;;;;;;;;;;;;;28.58;25.37;100455.22;5117795;28;748;-36
2020/12/30 11:58:15;;;;;;;;;;;;;;;28.48;25.79;100458.28;5117816;28;779;-36
2020/12/30 12:00:40;;;;;;;;;;;;;;;28.73;25.39;100455.91;5117873;28;1902;-36
2020/12/30 12:03:06;;;;;;;;;;;;;;;28.85;25.42;100452.63;5138011;27;1537;-36
2020/12/30 12:05:31;;;;;;;;;;;;;;;28.93;25.46;100452.44;5146972;27;861;-37
2020/12/30 12:07:56;;;;;;;;;;;;;;;28.80;25.94;100453.25;5134277;27;783;-37
2020/12/30 12:10:21;;;;;;;;;;;;;;;28.76;25.97;100449.25;5137899;27;1190;-37
2020/12/30 12:12:47;;;;;;;;;;;;;;;28.75;26.15;100450.31;5140102;27;1350;-37
2020/12/30 12:15:12;;;;;;;;;;;;;;;28.83;26.06;100463.66;5138152;27;843;-35
2020/12/30 12:17:37;;;;;;;;;;;;;;;29.35;25.40;100459.69;5155678;27;727;-37
2020/12/30 12:20:03;;;;;;;;;;;;;;;29.19;25.56;100463.63;5155805;27;1152;-34
2020/12/30 12:22:29;;;;;;;;;;;;;;;28.99;26.05;100467.09;5130261;27;1909;-37
2020/12/30 12:24:55;;;;;;;;;;;;;;;28.93;25.92;100471.41;5138063;27;826;-34
2020/12/30 12:27:20;;;;;;;;;;;;;;;29.05;25.88;100460.00;5137551;27;834;-36
2020/12/30 12:29:49;;;;;;;;;;;;;;;29.24;25.68;100463.00;5151315;27;817;-37
2020/12/30 12:32:21;;;;;;;;;;;;;;;29.42;25.41;100452.41;5158089;27;830;-37
2020/12/30 12:34:47;;;;;;;;;;;;;;;29.68;25.41;100453.50;5158583;27;766;-37
2020/12/30 12:37:12;;;;;;;;;;;;;;;29.87;25.21;100455.59;5118953;27;951;-36
2020/12/30 12:39:38;;;;;;;;;;;;;;;29.93;25.20;100454.75;5117035;28;816;-35
2020/12/30 12:42:03;;;;;;;;;;;;;;;29.96;25.09;100453.50;5117205;28;1909;-36
2020/12/30 12:44:29;;;;;;;;;;;;;;;30.13;24.87;100454.72;5117210;28;791;-36
2020/12/30 12:46:55;;;;;;;;;;;;;;;30.10;24.99;100452.44;5128485;28;861;-36
2020/12/30 12:49:20;;;;;;;;;;;;;;;29.96;25.37;100461.63;5139865;27;817;-36